KGED/GED METAR and TAF weather

Enter ICAO airport designator
Station Type Date Time Source
KGED METAR 2019/08/23 16:54 UTC NOAA

KGED 231654Z AUTO 05013KT 10SM OVC017 24/20 A2999 RMK AO2 SLP153 T02440200


Station Type Date Time Source
KGED Decoded METAR 2019/08/23 16:54 UTC NOAA

Station name not available
Aug 23, 2019 - 12:54 PM EDT / 2019.08.23 1654 UTC
Wind: from the NE (050 degrees) at 15 MPH (13 KT):0
Visibility: 10 mile(s):0
Sky conditions: overcast
Temperature: 75.9 F (24.4 C)
Dew Point: 68.0 F (20.0 C)
Relative Humidity: 76%
Pressure (altimeter): 29.99 in. Hg (1015 hPa)
ob: KGED 231654Z AUTO 05013KT 10SM OVC017 24/20 A2999 RMK AO2 SLP153 T02440200
cycle: 17

Station Type Date Time Source
KGED TAF UTC NOAA

Error!

Example: see airport list